sensor_id;sensor_type;location;lat;lon;timestamp;temperature;humidity
64939;DHT22;51453;47.738;7.420;2023-03-31T00:01:37;11.50;99.90
64939;DHT22;51453;47.738;7.420;2023-03-31T00:04:09;11.70;99.90
64939;DHT22;51453;47.738;7.420;2023-03-31T00:06:39;11.80;99.90
64939;DHT22;51453;47.738;7.420;2023-03-31T00:09:08;11.90;99.90
64939;DHT22;51453;47.738;7.420;2023-03-31T00:11:35;11.90;99.90
64939;DHT22;51453;47.738;7.420;2023-03-31T00:14:03;11.90;99.90
64939;DHT22;51453;47.738;7.420;2023-03-31T00:16:32;11.80;99.90
64939;DHT22;51453;47.738;7.420;2023-03-31T00:18:58;11.80;99.90
64939;DHT22;51453;47.738;7.420;2023-03-31T00:21:27;11.80;99.90
64939;DHT22;51453;47.738;7.420;2023-03-31T00:24:04;11.80;99.90
64939;DHT22;51453;47.738;7.420;2023-03-31T00:26:31;11.80;99.90
64939;DHT22;51453;47.738;7.420;2023-03-31T00:28:57;11.80;99.90
64939;DHT22;51453;47.738;7.420;2023-03-31T00:31:24;11.70;99.90
64939;DHT22;51453;47.738;7.420;2023-03-31T00:33:51;11.70;99.90
64939;DHT22;51453;47.738;7.420;2023-03-31T00:36:18;11.60;99.90
64939;DHT22;51453;47.738;7.420;2023-03-31T00:38:49;11.60;99.90
64939;DHT22;51453;47.738;7.420;2023-03-31T00:41:16;11.50;99.90
64939;DHT22;51453;47.738;7.420;2023-03-31T00:44:00;11.50;99.90
64939;DHT22;51453;47.738;7.420;2023-03-31T00:46:30;11.50;99.90
64939;DHT22;51453;47.738;7.420;2023-03-31T00:48:58;11.50;99.90
64939;DHT22;51453;47.738;7.420;2023-03-31T00:51:29;11.50;99.90
64939;DHT22;51453;47.738;7.420;2023-03-31T00:53:58;11.40;99.90
64939;DHT22;51453;47.738;7.420;2023-03-31T00:56:29;11.30;99.90
64939;DHT22;51453;47.738;7.420;2023-03-31T00:59:00;11.30;99.90
64939;DHT22;51453;47.738;7.420;2023-03-31T01:01:26;11.20;99.90
64939;DHT22;51453;47.738;7.420;2023-03-31T01:03:52;11.10;99.90
64939;DHT22;51453;47.738;7.420;2023-03-31T01:06:18;11.00;99.90
64939;DHT22;51453;47.738;7.420;2023-03-31T01:08:48;11.00;99.90
64939;DHT22;51453;47.738;7.420;2023-03-31T01:11:16;11.00;99.90
64939;DHT22;51453;47.738;7.420;2023-03-31T01:13:43;10.90;99.90
64939;DHT22;51453;47.738;7.420;2023-03-31T01:16:10;10.90;99.90
64939;DHT22;51453;47.738;7.420;2023-03-31T01:18:36;10.80;99.90
64939;DHT22;51453;47.738;7.420;2023-03-31T01:38:36;10.80;99.90
64939;DHT22;51453;47.738;7.420;2023-03-31T01:41:41;10.80;99.90
64939;DHT22;51453;47.738;7.420;2023-03-31T01:47:32;10.80;99.90
64939;DHT22;51453;47.738;7.420;2023-03-31T01:50:14;10.80;99.90
64939;DHT22;51453;47.738;7.420;2023-03-31T01:52:55;10.70;99.90
64939;DHT22;51453;47.738;7.420;2023-03-31T01:55:28;10.60;99.90
64939;DHT22;51453;47.738;7.420;2023-03-31T02:00:44;10.40;99.90
64939;DHT22;51453;47.738;7.420;2023-03-31T02:03:23;10.30;99.90
64939;DHT22;51453;47.738;7.420;2023-03-31T02:05:56;10.30;99.90
64939;DHT22;51453;47.738;7.420;2023-03-31T02:08:32;10.30;99.90
64939;DHT22;51453;47.738;7.420;2023-03-31T02:11:01;10.30;99.90
64939;DHT22;51453;47.738;7.420;2023-03-31T02:13:28;10.30;99.90
64939;DHT22;51453;47.738;7.420;2023-03-31T02:15:57;10.30;99.90
64939;DHT22;51453;47.738;7.420;2023-03-31T02:18:27;10.40;99.90
64939;DHT22;51453;47.738;7.420;2023-03-31T02:20:58;10.40;99.90
64939;DHT22;51453;47.738;7.420;2023-03-31T02:23:28;10.40;99.90
64939;DHT22;51453;47.738;7.420;2023-03-31T02:26:03;10.30;99.90
64939;DHT22;51453;47.738;7.420;2023-03-31T02:28:30;10.30;99.90
64939;DHT22;51453;47.738;7.420;2023-03-31T02:33:43;10.30;99.90
64939;DHT22;51453;47.738;7.420;2023-03-31T02:36:09;10.30;99.90
64939;DHT22;51453;47.738;7.420;2023-03-31T02:38:49;10.40;99.90
64939;DHT22;51453;47.738;7.420;2023-03-31T02:41:16;10.40;99.90
64939;DHT22;51453;47.738;7.420;2023-03-31T02:43:42;10.40;99.90
64939;DHT22;51453;47.738;7.420;2023-03-31T02:46:07;10.40;99.90
64939;DHT22;51453;47.738;7.420;2023-03-31T02:48:37;10.40;99.90
64939;DHT22;51453;47.738;7.420;2023-03-31T02:56:34;10.40;99.90
64939;DHT22;51453;47.738;7.420;2023-03-31T03:07:50;10.10;99.90
64939;DHT22;51453;47.738;7.420;2023-03-31T03:18:09;10.00;99.90
64939;DHT22;51453;47.738;7.420;2023-03-31T03:20:35;10.00;99.90
64939;DHT22;51453;47.738;7.420;2023-03-31T03:23:01;10.00;99.90
64939;DHT22;51453;47.738;7.420;2023-03-31T03:25:27;9.90;99.90
64939;DHT22;51453;47.738;7.420;2023-03-31T03:27:54;9.90;99.90
64939;DHT22;51453;47.738;7.420;2023-03-31T03:30:20;10.00;99.90
64939;DHT22;51453;47.738;7.420;2023-03-31T03:32:47;10.00;99.90
64939;DHT22;51453;47.738;7.420;2023-03-31T03:35:13;10.10;99.90
64939;DHT22;51453;47.738;7.420;2023-03-31T03:37:39;10.10;99.90
64939;DHT22;51453;47.738;7.420;2023-03-31T03:40:05;10.20;99.90
64939;DHT22;51453;47.738;7.420;2023-03-31T03:42:32;10.20;99.90
64939;DHT22;51453;47.738;7.420;2023-03-31T03:44:58;10.20;99.90
64939;DHT22;51453;47.738;7.420;2023-03-31T03:47:24;10.30;99.90
64939;DHT22;51453;47.738;7.420;2023-03-31T03:49:49;10.30;99.90
64939;DHT22;51453;47.738;7.420;2023-03-31T03:52:15;10.30;99.90
64939;DHT22;51453;47.738;7.420;2023-03-31T03:54:41;10.30;99.90
64939;DHT22;51453;47.738;7.420;2023-03-31T03:57:07;10.30;99.90
64939;DHT22;51453;47.738;7.420;2023-03-31T03:59:32;10.40;99.90
64939;DHT22;51453;47.738;7.420;2023-03-31T04:01:58;10.40;99.90
64939;DHT22;51453;47.738;7.420;2023-03-31T04:04:23;10.40;99.90
64939;DHT22;51453;47.738;7.420;2023-03-31T04:06:49;10.40;99.90
64939;DHT22;51453;47.738;7.420;2023-03-31T04:09:15;10.50;99.90
64939;DHT22;51453;47.738;7.420;2023-03-31T04:11:41;10.50;99.90
64939;DHT22;51453;47.738;7.420;2023-03-31T04:14:06;10.50;99.90
64939;DHT22;51453;47.738;7.420;2023-03-31T04:16:32;10.50;99.90
64939;DHT22;51453;47.738;7.420;2023-03-31T04:18:59;10.40;99.90
64939;DHT22;51453;47.738;7.420;2023-03-31T04:21:28;10.40;99.90
64939;DHT22;51453;47.738;7.420;2023-03-31T04:23:56;10.30;99.90
64939;DHT22;51453;47.738;7.420;2023-03-31T04:26:28;10.30;99.90
64939;DHT22;51453;47.738;7.420;2023-03-31T04:29:11;10.20;99.90
64939;DHT22;51453;47.738;7.420;2023-03-31T04:31:38;10.30;99.90
64939;DHT22;51453;47.738;7.420;2023-03-31T04:34:07;10.20;99.90
64939;DHT22;51453;47.738;7.420;2023-03-31T04:36:38;10.20;99.90
64939;DHT22;51453;47.738;7.420;2023-03-31T04:39:07;10.20;99.90
64939;DHT22;51453;47.738;7.420;2023-03-31T04:41:35;10.20;99.90
64939;DHT22;51453;47.738;7.420;2023-03-31T04:44:01;10.20;99.90
64939;DHT22;51453;47.738;7.420;2023-03-31T04:46:27;10.30;99.90
64939;DHT22;51453;47.738;7.420;2023-03-31T04:48:52;10.30;99.90
64939;DHT22;51453;47.738;7.420;2023-03-31T04:51:18;10.40;99.90
64939;DHT22;51453;47.738;7.420;2023-03-31T04:53:45;10.50;99.90
64939;DHT22;51453;47.738;7.420;2023-03-31T04:56:11;10.50;99.90
64939;DHT22;51453;47.738;7.420;2023-03-31T04:58:37;10.50;99.90
64939;DHT22;51453;47.738;7.420;2023-03-31T05:01:03;10.50;99.90
64939;DHT22;51453;47.738;7.420;2023-03-31T05:03:33;10.40;99.90
64939;DHT22;51453;47.738;7.420;2023-03-31T05:05:59;10.40;99.90
64939;DHT22;51453;47.738;7.420;2023-03-31T05:08:25;10.30;99.90
64939;DHT22;51453;47.738;7.420;2023-03-31T05:10:51;10.30;99.90
64939;DHT22;51453;47.738;7.420;2023-03-31T05:13:17;10.20;99.90
64939;DHT22;51453;47.738;7.420;2023-03-31T05:15:43;10.20;99.90
64939;DHT22;51453;47.738;7.420;2023-03-31T05:18:10;10.20;99.90
64939;DHT22;51453;47.738;7.420;2023-03-31T05:20:35;10.20;99.90
64939;DHT22;51453;47.738;7.420;2023-03-31T05:23:01;10.30;99.90
64939;DHT22;51453;47.738;7.420;2023-03-31T05:25:27;10.20;99.90
64939;DHT22;51453;47.738;7.420;2023-03-31T05:27:57;10.20;99.90
64939;DHT22;51453;47.738;7.420;2023-03-31T05:30:24;10.10;99.90
64939;DHT22;51453;47.738;7.420;2023-03-31T05:32:51;10.00;99.90
64939;DHT22;51453;47.738;7.420;2023-03-31T05:35:17;10.00;99.90
64939;DHT22;51453;47.738;7.420;2023-03-31T05:37:43;10.00;99.90
64939;DHT22;51453;47.738;7.420;2023-03-31T05:40:09;10.00;99.90
64939;DHT22;51453;47.738;7.420;2023-03-31T05:42:35;10.00;99.90
64939;DHT22;51453;47.738;7.420;2023-03-31T05:45:01;10.00;99.90
64939;DHT22;51453;47.738;7.420;2023-03-31T05:47:27;10.00;99.90
64939;DHT22;51453;47.738;7.420;2023-03-31T05:49:53;10.00;99.90
64939;DHT22;51453;47.738;7.420;2023-03-31T05:52:18;10.10;99.90
64939;DHT22;51453;47.738;7.420;2023-03-31T05:54:44;10.20;99.90
64939;DHT22;51453;47.738;7.420;2023-03-31T05:57:10;10.40;99.90
64939;DHT22;51453;47.738;7.420;2023-03-31T05:59:37;10.70;99.90
64939;DHT22;51453;47.738;7.420;2023-03-31T06:02:03;10.80;99.90
64939;DHT22;51453;47.738;7.420;2023-03-31T06:04:29;10.60;99.90
64939;DHT22;51453;47.738;7.420;2023-03-31T06:06:57;10.30;99.90
64939;DHT22;51453;47.738;7.420;2023-03-31T06:09:23;10.10;99.90
64939;DHT22;51453;47.738;7.420;2023-03-31T06:11:49;10.00;99.90
64939;DHT22;51453;47.738;7.420;2023-03-31T06:14:14;9.90;99.90
64939;DHT22;51453;47.738;7.420;2023-03-31T06:16:40;9.90;99.90
64939;DHT22;51453;47.738;7.420;2023-03-31T06:19:06;9.90;99.90
64939;DHT22;51453;47.738;7.420;2023-03-31T06:21:32;9.80;99.90
64939;DHT22;51453;47.738;7.420;2023-03-31T06:23:57;9.80;99.90
64939;DHT22;51453;47.738;7.420;2023-03-31T06:26:25;9.70;99.90
64939;DHT22;51453;47.738;7.420;2023-03-31T06:28:50;9.70;99.90
64939;DHT22;51453;47.738;7.420;2023-03-31T06:31:21;9.70;99.90
64939;DHT22;51453;47.738;7.420;2023-03-31T06:33:47;9.70;99.90
64939;DHT22;51453;47.738;7.420;2023-03-31T06:36:16;9.70;99.90
64939;DHT22;51453;47.738;7.420;2023-03-31T06:38:42;9.70;99.90
64939;DHT22;51453;47.738;7.420;2023-03-31T06:41:11;9.70;99.90
64939;DHT22;51453;47.738;7.420;2023-03-31T06:43:37;9.60;99.90
64939;DHT22;51453;47.738;7.420;2023-03-31T06:46:03;9.60;99.90
64939;DHT22;51453;47.738;7.420;2023-03-31T06:48:29;9.70;99.90
64939;DHT22;51453;47.738;7.420;2023-03-31T06:50:59;9.70;99.90
64939;DHT22;51453;47.738;7.420;2023-03-31T06:53:24;9.90;99.90
64939;DHT22;51453;47.738;7.420;2023-03-31T06:55:50;10.00;99.90
64939;DHT22;51453;47.738;7.420;2023-03-31T06:58:16;10.20;99.90
64939;DHT22;51453;47.738;7.420;2023-03-31T07:00:42;10.40;99.90
64939;DHT22;51453;47.738;7.420;2023-03-31T07:03:09;10.60;99.90
64939;DHT22;51453;47.738;7.420;2023-03-31T07:05:35;10.70;99.90
64939;DHT22;51453;47.738;7.420;2023-03-31T07:08:01;10.90;99.90
64939;DHT22;51453;47.738;7.420;2023-03-31T07:10:29;11.00;99.90
64939;DHT22;51453;47.738;7.420;2023-03-31T07:12:55;11.10;99.90
64939;DHT22;51453;47.738;7.420;2023-03-31T07:15:21;11.20;99.90
64939;DHT22;51453;47.738;7.420;2023-03-31T07:17:47;11.30;99.90
64939;DHT22;51453;47.738;7.420;2023-03-31T07:20:16;11.40;99.90
64939;DHT22;51453;47.738;7.420;2023-03-31T07:22:43;11.60;99.90
64939;DHT22;51453;47.738;7.420;2023-03-31T07:25:10;11.70;99.90
64939;DHT22;51453;47.738;7.420;2023-03-31T07:27:37;11.80;99.90
64939;DHT22;51453;47.738;7.420;2023-03-31T07:30:07;12.00;99.90
64939;DHT22;51453;47.738;7.420;2023-03-31T07:32:34;12.10;99.90
64939;DHT22;51453;47.738;7.420;2023-03-31T07:35:05;12.20;99.90
64939;DHT22;51453;47.738;7.420;2023-03-31T07:37:38;12.30;99.90
64939;DHT22;51453;47.738;7.420;2023-03-31T07:40:06;12.40;99.90
64939;DHT22;51453;47.738;7.420;2023-03-31T07:42:33;12.60;99.90
64939;DHT22;51453;47.738;7.420;2023-03-31T07:45:00;12.80;99.90
64939;DHT22;51453;47.738;7.420;2023-03-31T07:47:25;13.00;99.90
64939;DHT22;51453;47.738;7.420;2023-03-31T07:49:52;13.10;99.90
64939;DHT22;51453;47.738;7.420;2023-03-31T07:52:18;13.20;99.90
64939;DHT22;51453;47.738;7.420;2023-03-31T07:54:45;13.20;99.90
64939;DHT22;51453;47.738;7.420;2023-03-31T07:57:11;13.20;99.90
64939;DHT22;51453;47.738;7.420;2023-03-31T07:59:37;13.20;99.90
64939;DHT22;51453;47.738;7.420;2023-03-31T08:02:02;13.20;99.90
64939;DHT22;51453;47.738;7.420;2023-03-31T08:04:28;13.30;99.90
64939;DHT22;51453;47.738;7.420;2023-03-31T08:06:53;13.40;99.90
64939;DHT22;51453;47.738;7.420;2023-03-31T08:09:20;13.50;99.90
64939;DHT22;51453;47.738;7.420;2023-03-31T08:11:47;13.60;99.90
64939;DHT22;51453;47.738;7.420;2023-03-31T08:14:13;13.70;99.90
64939;DHT22;51453;47.738;7.420;2023-03-31T08:16:38;13.70;99.90
64939;DHT22;51453;47.738;7.420;2023-03-31T08:19:04;13.70;99.90
64939;DHT22;51453;47.738;7.420;2023-03-31T08:21:29;13.80;99.90
64939;DHT22;51453;47.738;7.420;2023-03-31T08:23:55;13.90;99.90
64939;DHT22;51453;47.738;7.420;2023-03-31T08:26:22;13.90;99.90
64939;DHT22;51453;47.738;7.420;2023-03-31T08:28:50;14.00;99.90
64939;DHT22;51453;47.738;7.420;2023-03-31T08:31:16;14.00;99.90
64939;DHT22;51453;47.738;7.420;2023-03-31T08:33:46;14.10;99.90
64939;DHT22;51453;47.738;7.420;2023-03-31T08:36:12;14.40;99.90
64939;DHT22;51453;47.738;7.420;2023-03-31T08:38:40;14.60;99.90
64939;DHT22;51453;47.738;7.420;2023-03-31T08:44:01;15.10;99.90
64939;DHT22;51453;47.738;7.420;2023-03-31T08:46:30;15.40;99.90
64939;DHT22;51453;47.738;7.420;2023-03-31T08:48:59;15.60;99.90
64939;DHT22;51453;47.738;7.420;2023-03-31T08:51:32;15.60;99.90
64939;DHT22;51453;47.738;7.420;2023-03-31T08:54:05;15.50;99.90
64939;DHT22;51453;47.738;7.420;2023-03-31T08:56:37;15.40;99.90
64939;DHT22;51453;47.738;7.420;2023-03-31T08:59:05;15.30;99.90
64939;DHT22;51453;47.738;7.420;2023-03-31T09:04:20;15.00;99.90
64939;DHT22;51453;47.738;7.420;2023-03-31T09:12:17;15.60;99.90
64939;DHT22;51453;47.738;7.420;2023-03-31T09:14:59;16.00;99.90
64939;DHT22;51453;47.738;7.420;2023-03-31T09:17:29;16.10;99.90
64939;DHT22;51453;47.738;7.420;2023-03-31T09:20:04;16.40;99.90
64939;DHT22;51453;47.738;7.420;2023-03-31T09:22:38;16.40;99.90
64939;DHT22;51453;47.738;7.420;2023-03-31T09:27:42;15.80;99.90
64939;DHT22;51453;47.738;7.420;2023-03-31T09:30:31;15.80;99.90
64939;DHT22;51453;47.738;7.420;2023-03-31T09:33:24;15.90;99.90
64939;DHT22;51453;47.738;7.420;2023-03-31T09:35:52;16.10;99.90
64939;DHT22;51453;47.738;7.420;2023-03-31T09:38:18;16.20;99.90
64939;DHT22;51453;47.738;7.420;2023-03-31T09:40:44;16.40;99.90
64939;DHT22;51453;47.738;7.420;2023-03-31T09:43:30;16.50;99.90
64939;DHT22;51453;47.738;7.420;2023-03-31T09:45:58;16.90;99.90
64939;DHT22;51453;47.738;7.420;2023-03-31T09:48:33;17.10;99.90
64939;DHT22;51453;47.738;7.420;2023-03-31T09:51:04;17.00;99.90
64939;DHT22;51453;47.738;7.420;2023-03-31T09:53:55;16.90;99.90
64939;DHT22;51453;47.738;7.420;2023-03-31T09:56:50;16.80;99.90
64939;DHT22;51453;47.738;7.420;2023-03-31T09:59:35;16.80;99.90
64939;DHT22;51453;47.738;7.420;2023-03-31T10:04:47;16.30;99.90
64939;DHT22;51453;47.738;7.420;2023-03-31T10:07:20;15.90;99.90
64939;DHT22;51453;47.738;7.420;2023-03-31T10:09:47;15.80;99.90
64939;DHT22;51453;47.738;7.420;2023-03-31T10:12:21;15.80;99.90
64939;DHT22;51453;47.738;7.420;2023-03-31T10:14:51;15.80;99.90
64939;DHT22;51453;47.738;7.420;2023-03-31T10:17:22;15.60;99.90
64939;DHT22;51453;47.738;7.420;2023-03-31T10:19:58;15.50;99.90
64939;DHT22;51453;47.738;7.420;2023-03-31T10:22:31;15.50;99.90
64939;DHT22;51453;47.738;7.420;2023-03-31T10:25:16;15.50;99.90
64939;DHT22;51453;47.738;7.420;2023-03-31T10:27:45;15.50;99.90
64939;DHT22;51453;47.738;7.420;2023-03-31T10:30:20;15.60;99.90
64939;DHT22;51453;47.738;7.420;2023-03-31T10:32:46;15.70;99.90
64939;DHT22;51453;47.738;7.420;2023-03-31T10:37:49;16.30;99.90
64939;DHT22;51453;47.738;7.420;2023-03-31T10:40:26;16.40;99.90
64939;DHT22;51453;47.738;7.420;2023-03-31T10:43:14;16.50;99.90
64939;DHT22;51453;47.738;7.420;2023-03-31T10:46:01;16.90;99.90
64939;DHT22;51453;47.738;7.420;2023-03-31T10:48:29;17.30;99.90
64939;DHT22;51453;47.738;7.420;2023-03-31T10:51:16;17.50;99.90
64939;DHT22;51453;47.738;7.420;2023-03-31T10:53:45;17.60;99.90
64939;DHT22;51453;47.738;7.420;2023-03-31T11:01:33;16.60;99.90
64939;DHT22;51453;47.738;7.420;2023-03-31T11:12:58;15.70;99.90
64939;DHT22;51453;47.738;7.420;2023-03-31T11:15:14;14.10;99.90
64939;DHT22;51453;47.738;7.420;2023-03-31T11:23:20;11.90;99.90
64939;DHT22;51453;47.738;7.420;2023-03-31T11:28:28;11.30;99.90
64939;DHT22;51453;47.738;7.420;2023-03-31T11:33:50;9.20;99.90
64939;DHT22;51453;47.738;7.420;2023-03-31T11:42:01;8.80;99.90
64939;DHT22;51453;47.738;7.420;2023-03-31T11:44:37;9.30;99.90
64939;DHT22;51453;47.738;7.420;2023-03-31T11:47:18;10.00;99.90
64939;DHT22;51453;47.738;7.420;2023-03-31T11:49:56;10.70;99.90
64939;DHT22;51453;47.738;7.420;2023-03-31T11:52:36;11.30;99.90
64939;DHT22;51453;47.738;7.420;2023-03-31T11:55:20;11.90;99.90
64939;DHT22;51453;47.738;7.420;2023-03-31T12:00:29;12.80;99.90
64939;DHT22;51453;47.738;7.420;2023-03-31T12:03:18;13.00;99.90
64939;DHT22;51453;47.738;7.420;2023-03-31T12:05:52;13.20;99.90
64939;DHT22;51453;47.738;7.420;2023-03-31T12:08:36;13.30;99.90
64939;DHT22;51453;47.738;7.420;2023-03-31T12:14:13;13.70;99.90
64939;DHT22;51453;47.738;7.420;2023-03-31T12:16:44;13.90;99.90
64939;DHT22;51453;47.738;7.420;2023-03-31T12:19:21;14.00;99.90
64939;DHT22;51453;47.738;7.420;2023-03-31T12:24:36;14.50;99.90
64939;DHT22;51453;47.738;7.420;2023-03-31T12:27:17;14.70;99.90
64939;DHT22;51453;47.738;7.420;2023-03-31T12:33:06;15.10;99.90
64939;DHT22;51453;47.738;7.420;2023-03-31T12:36:10;15.20;99.90
64939;DHT22;51453;47.738;7.420;2023-03-31T12:41:35;15.70;99.90
64939;DHT22;51453;47.738;7.420;2023-03-31T12:49:55;16.30;99.90
64939;DHT22;51453;47.738;7.420;2023-03-31T12:57:48;17.30;99.90
64939;DHT22;51453;47.738;7.420;2023-03-31T13:00:21;17.60;99.90
64939;DHT22;51453;47.738;7.420;2023-03-31T13:02:48;17.50;99.90
64939;DHT22;51453;47.738;7.420;2023-03-31T13:08:08;17.40;99.90
64939;DHT22;51453;47.738;7.420;2023-03-31T13:10:56;17.00;99.90
64939;DHT22;51453;47.738;7.420;2023-03-31T13:13:23;16.40;99.90
64939;DHT22;51453;47.738;7.420;2023-03-31T13:15:54;15.80;99.90
64939;DHT22;51453;47.738;7.420;2023-03-31T13:18:21;15.00;99.90
64939;DHT22;51453;47.738;7.420;2023-03-31T13:21:01;12.90;99.90
64939;DHT22;51453;47.738;7.420;2023-03-31T13:23:32;10.90;99.90
64939;DHT22;51453;47.738;7.420;2023-03-31T13:25:59;9.90;99.90
64939;DHT22;51453;47.738;7.420;2023-03-31T13:28:31;9.40;99.90
64939;DHT22;51453;47.738;7.420;2023-03-31T13:30:59;9.20;99.90
64939;DHT22;51453;47.738;7.420;2023-03-31T13:41:47;9.00;99.90
64939;DHT22;51453;47.738;7.420;2023-03-31T14:12:49;9.30;99.90
64939;DHT22;51453;47.738;7.420;2023-03-31T14:15:19;9.20;99.90
64939;DHT22;51453;47.738;7.420;2023-03-31T14:17:46;9.30;99.90
64939;DHT22;51453;47.738;7.420;2023-03-31T14:23:37;9.60;99.90
64939;DHT22;51453;47.738;7.420;2023-03-31T14:32:02;11.00;99.90
64939;DHT22;51453;47.738;7.420;2023-03-31T14:34:51;11.60;99.90
64939;DHT22;51453;47.738;7.420;2023-03-31T14:37:18;12.00;99.90
64939;DHT22;51453;47.738;7.420;2023-03-31T14:39:49;12.10;99.90
64939;DHT22;51453;47.738;7.420;2023-03-31T14:42:20;12.20;99.90
64939;DHT22;51453;47.738;7.420;2023-03-31T14:44:46;12.40;99.90
64939;DHT22;51453;47.738;7.420;2023-03-31T14:47:21;12.50;99.90
64939;DHT22;51453;47.738;7.420;2023-03-31T14:52:38;12.00;99.90
64939;DHT22;51453;47.738;7.420;2023-03-31T14:55:04;11.90;99.90
64939;DHT22;51453;47.738;7.420;2023-03-31T14:57:35;11.90;99.90
64939;DHT22;51453;47.738;7.420;2023-03-31T15:00:05;11.80;99.90
64939;DHT22;51453;47.738;7.420;2023-03-31T15:02:39;11.90;99.90
64939;DHT22;51453;47.738;7.420;2023-03-31T15:05:08;12.00;99.90
64939;DHT22;51453;47.738;7.420;2023-03-31T15:07:35;12.20;99.90
64939;DHT22;51453;47.738;7.420;2023-03-31T15:10:04;12.40;99.90
64939;DHT22;51453;47.738;7.420;2023-03-31T15:12:30;12.60;99.90
64939;DHT22;51453;47.738;7.420;2023-03-31T15:15:02;12.90;99.90
64939;DHT22;51453;47.738;7.420;2023-03-31T15:17:30;13.10;99.90
64939;DHT22;51453;47.738;7.420;2023-03-31T15:19:59;13.20;99.90
64939;DHT22;51453;47.738;7.420;2023-03-31T15:22:28;13.50;99.90
64939;DHT22;51453;47.738;7.420;2023-03-31T15:24:55;13.60;99.90
64939;DHT22;51453;47.738;7.420;2023-03-31T15:27:37;13.70;99.90
64939;DHT22;51453;47.738;7.420;2023-03-31T15:30:07;13.70;99.90
64939;DHT22;51453;47.738;7.420;2023-03-31T15:32:36;13.90;99.90
64939;DHT22;51453;47.738;7.420;2023-03-31T15:35:03;14.20;99.90
64939;DHT22;51453;47.738;7.420;2023-03-31T15:37:39;14.40;99.90
64939;DHT22;51453;47.738;7.420;2023-03-31T15:40:48;14.70;99.90
64939;DHT22;51453;47.738;7.420;2023-03-31T15:43:27;15.30;99.90
64939;DHT22;51453;47.738;7.420;2023-03-31T15:45:55;15.90;99.90
64939;DHT22;51453;47.738;7.420;2023-03-31T15:48:33;16.50;99.90
64939;DHT22;51453;47.738;7.420;2023-03-31T15:53:47;17.30;99.90
64939;DHT22;51453;47.738;7.420;2023-03-31T15:56:42;16.80;99.90
64939;DHT22;51453;47.738;7.420;2023-03-31T15:59:21;16.40;99.90
64939;DHT22;51453;47.738;7.420;2023-03-31T16:01:48;15.90;99.90
64939;DHT22;51453;47.738;7.420;2023-03-31T16:04:16;15.50;99.90
64939;DHT22;51453;47.738;7.420;2023-03-31T16:06:47;15.20;99.90
64939;DHT22;51453;47.738;7.420;2023-03-31T16:12:04;15.10;99.90
64939;DHT22;51453;47.738;7.420;2023-03-31T16:14:37;15.10;99.90
64939;DHT22;51453;47.738;7.420;2023-03-31T16:17:12;15.20;99.90
64939;DHT22;51453;47.738;7.420;2023-03-31T16:20:15;15.20;99.90
64939;DHT22;51453;47.738;7.420;2023-03-31T16:22:43;15.30;99.90
64939;DHT22;51453;47.738;7.420;2023-03-31T16:25:15;15.20;99.90
64939;DHT22;51453;47.738;7.420;2023-03-31T16:28:16;15.30;99.90
64939;DHT22;51453;47.738;7.420;2023-03-31T16:30:40;15.10;99.90
64939;DHT22;51453;47.738;7.420;2023-03-31T16:33:19;15.00;99.90
64939;DHT22;51453;47.738;7.420;2023-03-31T16:35:49;15.00;99.90
64939;DHT22;51453;47.738;7.420;2023-03-31T16:38:17;15.00;99.90
64939;DHT22;51453;47.738;7.420;2023-03-31T16:40:46;15.00;99.90
64939;DHT22;51453;47.738;7.420;2023-03-31T16:43:14;14.90;99.90
64939;DHT22;51453;47.738;7.420;2023-03-31T16:45:44;14.70;99.90
64939;DHT22;51453;47.738;7.420;2023-03-31T16:48:10;14.70;99.90
64939;DHT22;51453;47.738;7.420;2023-03-31T16:50:36;14.60;99.90
64939;DHT22;51453;47.738;7.420;2023-03-31T16:53:01;14.60;99.90
64939;DHT22;51453;47.738;7.420;2023-03-31T16:55:29;14.50;99.90
64939;DHT22;51453;47.738;7.420;2023-03-31T16:57:56;14.50;99.90
64939;DHT22;51453;47.738;7.420;2023-03-31T17:00:23;14.30;99.90
64939;DHT22;51453;47.738;7.420;2023-03-31T17:02:49;14.10;99.90
64939;DHT22;51453;47.738;7.420;2023-03-31T17:05:15;13.90;99.90
64939;DHT22;51453;47.738;7.420;2023-03-31T17:07:41;13.70;99.90
64939;DHT22;51453;47.738;7.420;2023-03-31T17:10:07;13.50;99.90
64939;DHT22;51453;47.738;7.420;2023-03-31T17:12:33;13.30;99.90
64939;DHT22;51453;47.738;7.420;2023-03-31T17:14:58;13.20;99.90
64939;DHT22;51453;47.738;7.420;2023-03-31T17:17:24;13.10;99.90
64939;DHT22;51453;47.738;7.420;2023-03-31T17:19:50;12.90;99.90
64939;DHT22;51453;47.738;7.420;2023-03-31T17:22:15;12.90;99.90
64939;DHT22;51453;47.738;7.420;2023-03-31T17:24:41;12.80;99.90
64939;DHT22;51453;47.738;7.420;2023-03-31T17:27:07;12.70;99.90
64939;DHT22;51453;47.738;7.420;2023-03-31T17:29:32;12.70;99.90
64939;DHT22;51453;47.738;7.420;2023-03-31T17:31:58;12.60;99.90
64939;DHT22;51453;47.738;7.420;2023-03-31T17:34:23;12.60;99.90
64939;DHT22;51453;47.738;7.420;2023-03-31T17:36:49;12.50;99.90
64939;DHT22;51453;47.738;7.420;2023-03-31T17:39:15;12.40;99.90
64939;DHT22;51453;47.738;7.420;2023-03-31T17:41:41;12.40;99.90
64939;DHT22;51453;47.738;7.420;2023-03-31T17:44:07;12.30;99.90
64939;DHT22;51453;47.738;7.420;2023-03-31T17:46:33;12.20;99.90
64939;DHT22;51453;47.738;7.420;2023-03-31T17:48:59;12.10;99.90
64939;DHT22;51453;47.738;7.420;2023-03-31T17:51:25;12.00;99.90
64939;DHT22;51453;47.738;7.420;2023-03-31T17:53:52;11.90;99.90
64939;DHT22;51453;47.738;7.420;2023-03-31T17:56:17;11.80;99.90
64939;DHT22;51453;47.738;7.420;2023-03-31T17:58:44;11.70;99.90
64939;DHT22;51453;47.738;7.420;2023-03-31T18:01:10;11.60;99.90
64939;DHT22;51453;47.738;7.420;2023-03-31T18:03:37;11.50;99.90
64939;DHT22;51453;47.738;7.420;2023-03-31T18:08:31;11.40;99.90
64939;DHT22;51453;47.738;7.420;2023-03-31T18:10:57;11.30;99.90
64939;DHT22;51453;47.738;7.420;2023-03-31T18:13:23;11.30;99.90
64939;DHT22;51453;47.738;7.420;2023-03-31T18:15:50;11.30;99.90
64939;DHT22;51453;47.738;7.420;2023-03-31T18:18:17;11.20;99.90
64939;DHT22;51453;47.738;7.420;2023-03-31T18:20:43;11.20;99.90
64939;DHT22;51453;47.738;7.420;2023-03-31T18:23:10;11.10;99.90
64939;DHT22;51453;47.738;7.420;2023-03-31T18:25:36;11.10;99.90
64939;DHT22;51453;47.738;7.420;2023-03-31T18:28:01;11.00;99.90
64939;DHT22;51453;47.738;7.420;2023-03-31T18:30:27;11.00;99.90
64939;DHT22;51453;47.738;7.420;2023-03-31T18:32:53;11.00;99.90
64939;DHT22;51453;47.738;7.420;2023-03-31T18:35:19;10.90;99.90
64939;DHT22;51453;47.738;7.420;2023-03-31T18:37:46;10.90;99.90
64939;DHT22;51453;47.738;7.420;2023-03-31T18:40:12;10.80;99.90
64939;DHT22;51453;47.738;7.420;2023-03-31T18:42:40;10.80;99.90
64939;DHT22;51453;47.738;7.420;2023-03-31T18:45:06;10.80;99.90
64939;DHT22;51453;47.738;7.420;2023-03-31T18:47:33;10.80;99.90
64939;DHT22;51453;47.738;7.420;2023-03-31T18:50:00;10.90;99.90
64939;DHT22;51453;47.738;7.420;2023-03-31T18:52:26;10.80;99.90